createdAt,value
2022-08-16T00:01:47.123Z,98.80
2022-08-16T00:04:40.292Z,99.00
2022-08-16T00:07:08.929Z,99.90
2022-08-16T00:09:41.722Z,99.90
2022-08-16T00:12:18.070Z,99.80
2022-08-16T00:14:56.895Z,99.90
2022-08-16T00:17:29.869Z,99.70
2022-08-16T00:20:21.028Z,99.60
2022-08-16T00:22:53.224Z,99.70
2022-08-16T00:26:13.547Z,99.60
2022-08-16T00:28:18.842Z,99.70
2022-08-16T00:30:48.739Z,99.80
2022-08-16T00:33:18.900Z,99.90
2022-08-16T00:35:50.298Z,99.70
2022-08-16T00:38:41.367Z,99.60
2022-08-16T00:41:14.097Z,99.10
2022-08-16T00:43:44.301Z,99.40
2022-08-16T00:46:35.389Z,99.00
2022-08-16T00:49:17.318Z,99.20
2022-08-16T00:51:54.950Z,99.10
2022-08-16T00:54:30.006Z,99.20
2022-08-16T00:57:07.094Z,99.00
2022-08-16T00:59:54.688Z,98.90
2022-08-16T01:02:33.299Z,98.80
2022-08-16T01:05:11.078Z,98.90
2022-08-16T01:07:52.169Z,98.70
2022-08-16T01:10:34.346Z,98.90
2022-08-16T01:13:15.284Z,99.00
2022-08-16T01:16:22.209Z,99.00
2022-08-16T01:19:20.457Z,98.90
2022-08-16T01:22:47.391Z,98.80
2022-08-16T01:25:34.069Z,98.80
2022-08-16T01:28:05.605Z,98.80
2022-08-16T01:30:49.781Z,98.80
2022-08-16T01:33:22.513Z,98.80
2022-08-16T01:36:01.270Z,98.90
2022-08-16T01:38:49.254Z,99.20
2022-08-16T01:41:33.115Z,99.60
2022-08-16T01:44:10.626Z,99.80
2022-08-16T01:47:02.196Z,99.80
2022-08-16T01:50:41.058Z,99.90
2022-08-16T01:52:33.517Z,99.80
2022-08-16T01:55:23.415Z,99.90
2022-08-16T01:57:56.449Z,99.90
2022-08-16T02:00:29.923Z,99.90
2022-08-16T02:03:05.854Z,99.90
2022-08-16T02:05:36.528Z,99.90
2022-08-16T02:10:48.959Z,99.90
2022-08-16T02:13:19.489Z,99.90
2022-08-16T02:15:57.093Z,99.90
2022-08-16T02:18:28.540Z,99.90
2022-08-16T02:21:04.275Z,99.90
2022-08-16T02:23:39.542Z,99.90
2022-08-16T02:26:10.918Z,99.90
2022-08-16T02:28:48.725Z,99.90
2022-08-16T02:31:22.132Z,99.90
2022-08-16T02:34:10.343Z,99.90
2022-08-16T02:36:50.552Z,99.90
2022-08-16T02:39:26.353Z,99.90
2022-08-16T02:42:01.522Z,99.90
2022-08-16T02:44:42.376Z,99.90
2022-08-16T02:47:25.567Z,99.90
2022-08-16T02:49:59.134Z,99.90
2022-08-16T02:52:47.340Z,99.90
2022-08-16T02:55:40.646Z,99.90
2022-08-16T02:58:13.949Z,99.90
2022-08-16T03:00:45.539Z,99.90
2022-08-16T03:03:19.431Z,99.90
2022-08-16T03:05:54.573Z,99.90
2022-08-16T03:08:49.711Z,99.90
2022-08-16T03:11:35.384Z,99.90
2022-08-16T03:14:30.135Z,99.90
2022-08-16T03:17:02.687Z,99.90
2022-08-16T03:19:48.345Z,99.90
2022-08-16T03:22:35.798Z,99.90
2022-08-16T03:25:16.262Z,99.90
2022-08-16T03:27:58.510Z,99.90
2022-08-16T03:30:42.723Z,99.90
2022-08-16T03:33:14.352Z,99.90
2022-08-16T03:35:57.237Z,99.90
2022-08-16T03:38:35.279Z,99.90
2022-08-16T03:41:25.409Z,99.90
2022-08-16T03:44:43.242Z,99.90
2022-08-16T03:47:10.410Z,99.90
2022-08-16T03:50:02.937Z,99.90
2022-08-16T03:52:33.710Z,99.90
2022-08-16T03:55:10.463Z,99.90
2022-08-16T03:57:52.297Z,99.90
2022-08-16T04:00:36.159Z,99.90
2022-08-16T04:03:18.543Z,99.90
2022-08-16T04:05:55.413Z,99.90
2022-08-16T04:08:27.373Z,99.90
2022-08-16T04:11:03.640Z,99.90
2022-08-16T04:14:00.959Z,99.90
2022-08-16T04:16:28.239Z,99.90
2022-08-16T04:19:10.293Z,99.90
2022-08-16T04:21:47.610Z,99.90
2022-08-16T04:24:28.620Z,99.90
2022-08-16T04:26:59.919Z,99.90
2022-08-16T04:29:44.158Z,99.90
2022-08-16T04:32:20.521Z,99.90
2022-08-16T04:34:56.732Z,99.90
2022-08-16T04:37:25.581Z,99.90
2022-08-16T04:40:10.516Z,99.90
2022-08-16T04:42:50.400Z,99.90
2022-08-16T04:45:36.199Z,99.90
2022-08-16T04:48:22.085Z,99.90
2022-08-16T04:51:11.915Z,99.90
2022-08-16T04:53:46.633Z,99.90
2022-08-16T04:56:20.160Z,99.90
2022-08-16T04:58:50.297Z,99.90
2022-08-16T05:01:23.765Z,99.90
2022-08-16T05:04:19.515Z,99.90
2022-08-16T05:06:55.633Z,99.90
2022-08-16T05:09:49.140Z,99.90
2022-08-16T05:12:22.247Z,99.90
2022-08-16T05:15:03.082Z,99.90
2022-08-16T05:17:40.907Z,99.90
2022-08-16T05:20:35.715Z,99.90
2022-08-16T05:23:09.847Z,99.90
2022-08-16T05:25:48.824Z,99.90
2022-08-16T05:28:22.992Z,99.90
2022-08-16T05:31:01.325Z,99.90
2022-08-16T05:33:35.566Z,99.90
2022-08-16T05:36:14.218Z,99.90
2022-08-16T05:38:53.990Z,99.90
2022-08-16T05:41:24.788Z,99.90
2022-08-16T05:43:59.386Z,99.90
2022-08-16T05:46:43.878Z,99.90
2022-08-16T05:52:17.381Z,99.90
2022-08-16T05:55:00.897Z,99.90
2022-08-16T05:57:35.918Z,99.90
2022-08-16T06:00:22.301Z,99.90
2022-08-16T06:02:57.024Z,99.90
2022-08-16T06:06:00.589Z,99.90
2022-08-16T06:08:44.812Z,99.90
2022-08-16T06:11:19.535Z,99.90
2022-08-16T06:13:56.157Z,99.90
2022-08-16T06:16:59.001Z,99.90
2022-08-16T06:19:35.863Z,99.90
2022-08-16T06:22:37.181Z,99.90
2022-08-16T06:25:05.871Z,98.90
2022-08-16T06:27:39.326Z,99.20
2022-08-16T06:30:13.957Z,99.10
2022-08-16T06:32:55.254Z,99.10
2022-08-16T06:35:27.198Z,99.20
2022-08-16T06:38:32.978Z,99.20
2022-08-16T06:41:07.089Z,99.10
2022-08-16T06:43:46.670Z,99.00
2022-08-16T06:46:39.714Z,99.10
2022-08-16T06:49:18.698Z,99.00
2022-08-16T06:51:50.856Z,99.00
2022-08-16T06:54:29.795Z,98.90
2022-08-16T06:57:02.535Z,99.00
2022-08-16T06:59:52.284Z,99.10
2022-08-16T07:02:33.411Z,98.80
2022-08-16T07:05:15.242Z,98.90
2022-08-16T07:07:56.962Z,99.00
2022-08-16T07:10:29.128Z,99.00
2022-08-16T07:13:04.153Z,99.00
2022-08-16T07:15:50.070Z,98.90
2022-08-16T07:18:27.403Z,99.00
2022-08-16T07:21:02.405Z,99.00
2022-08-16T07:23:38.784Z,98.50
2022-08-16T07:26:24.899Z,98.60
2022-08-16T07:29:00.982Z,98.50
2022-08-16T07:31:37.968Z,97.30
2022-08-16T07:34:11.634Z,97.30
2022-08-16T07:36:45.135Z,97.30
2022-08-16T07:39:29.370Z,96.50
2022-08-16T07:42:03.572Z,95.60
2022-08-16T07:44:50.468Z,95.60
2022-08-16T07:47:24.570Z,95.40
2022-08-16T07:50:05.520Z,95.60
2022-08-16T07:52:41.106Z,94.80
2022-08-16T07:55:16.921Z,95.00
2022-08-16T07:58:00.770Z,94.10
2022-08-16T08:00:38.483Z,93.60
2022-08-16T08:03:08.923Z,93.80
2022-08-16T08:05:40.498Z,93.30
2022-08-16T08:08:49.702Z,93.50
2022-08-16T08:11:18.211Z,93.10
2022-08-16T08:13:53.569Z,92.30
2022-08-16T08:16:30.742Z,92.50
2022-08-16T08:19:03.887Z,92.30
2022-08-16T08:22:00.189Z,92.10
2022-08-16T08:24:44.137Z,92.00
2022-08-16T08:27:22.453Z,91.80
2022-08-16T08:30:49.380Z,92.00
2022-08-16T08:33:00.530Z,91.50
2022-08-16T08:35:37.207Z,91.40
2022-08-16T08:38:09.990Z,91.20
2022-08-16T08:40:45.851Z,91.60
2022-08-16T08:43:18.290Z,91.40
2022-08-16T08:46:03.964Z,90.90
2022-08-16T08:48:59.147Z,90.80
2022-08-16T08:51:35.722Z,91.30
2022-08-16T08:54:12.122Z,91.00
2022-08-16T08:57:05.241Z,91.40
2022-08-16T08:59:49.871Z,90.20
2022-08-16T09:02:22.486Z,90.10
2022-08-16T09:04:57.484Z,88.30
2022-08-16T09:07:28.415Z,87.70
2022-08-16T09:10:06.923Z,87.70
2022-08-16T09:12:50.274Z,87.30
2022-08-16T09:15:26.454Z,88.00
2022-08-16T09:18:25.208Z,88.70
2022-08-16T09:21:10.423Z,86.70
2022-08-16T09:23:42.967Z,87.50
2022-08-16T09:26:44.693Z,87.20
2022-08-16T09:29:16.838Z,87.00
2022-08-16T09:31:53.307Z,84.50
2022-08-16T09:34:26.281Z,85.70
2022-08-16T09:37:00.828Z,86.00
2022-08-16T09:39:41.410Z,83.90
2022-08-16T09:42:19.026Z,83.40
2022-08-16T09:45:12.236Z,83.60
2022-08-16T09:47:57.065Z,81.60
2022-08-16T09:50:53.049Z,81.40
2022-08-16T09:53:32.005Z,80.20
2022-08-16T09:56:02.629Z,81.70
2022-08-16T09:58:40.528Z,80.20
2022-08-16T10:01:23.651Z,79.90
2022-08-16T10:04:02.217Z,78.80
2022-08-16T10:06:33.822Z,78.50
2022-08-16T10:09:11.606Z,78.40
2022-08-16T10:12:19.366Z,77.40
2022-08-16T10:14:47.898Z,78.20
2022-08-16T10:17:17.485Z,78.20
2022-08-16T10:19:53.592Z,77.20
2022-08-16T10:22:27.973Z,76.50
2022-08-16T10:24:59.917Z,77.90
2022-08-16T10:27:56.811Z,76.60
2022-08-16T10:30:28.326Z,75.10
2022-08-16T10:33:00.917Z,74.60
2022-08-16T10:35:33.306Z,75.00
2022-08-16T10:38:09.488Z,73.90
2022-08-16T10:40:39.376Z,74.00
2022-08-16T10:43:18.707Z,74.70
2022-08-16T10:46:00.324Z,72.20
2022-08-16T10:48:31.306Z,70.90
2022-08-16T10:51:05.437Z,70.70
2022-08-16T10:53:43.078Z,71.20
2022-08-16T10:56:44.339Z,72.80
2022-08-16T11:07:43.744Z,70.40
2022-08-16T11:10:20.198Z,71.20
2022-08-16T11:12:52.933Z,69.10
2022-08-16T11:15:26.332Z,67.40
2022-08-16T11:20:50.636Z,69.30
2022-08-16T11:23:20.041Z,69.80
2022-08-16T11:26:07.422Z,69.30
2022-08-16T11:31:28.407Z,67.90
2022-08-16T11:34:03.062Z,67.50
2022-08-16T11:36:30.679Z,67.30
2022-08-16T11:39:00.480Z,67.30
2022-08-16T11:41:34.843Z,66.70
2022-08-16T11:44:05.958Z,66.70
2022-08-16T11:46:45.120Z,67.80
2022-08-16T11:49:18.864Z,67.60
2022-08-16T11:51:50.346Z,65.70
2022-08-16T11:54:22.869Z,66.00
2022-08-16T11:57:01.209Z,64.90
2022-08-16T11:59:32.775Z,65.80
2022-08-16T12:02:04.385Z,65.00
2022-08-16T12:04:52.149Z,65.80
2022-08-16T12:07:24.447Z,65.80
2022-08-16T12:09:58.483Z,64.70
2022-08-16T12:12:28.559Z,65.60
2022-08-16T12:15:00.327Z,64.90
2022-08-16T12:17:35.112Z,64.80
2022-08-16T12:20:18.847Z,64.30
2022-08-16T12:22:51.158Z,63.10
2022-08-16T12:25:22.217Z,63.90
2022-08-16T12:27:52.192Z,63.30
2022-08-16T12:30:31.239Z,63.50
2022-08-16T12:33:02.963Z,60.80
2022-08-16T12:35:36.649Z,62.20
2022-08-16T12:38:38.294Z,60.00
2022-08-16T12:41:01.306Z,59.90
2022-08-16T12:43:31.448Z,60.40
2022-08-16T12:45:59.414Z,59.50
2022-08-16T12:48:53.160Z,59.50
2022-08-16T12:51:32.807Z,60.40
2022-08-16T12:54:16.263Z,60.60
2022-08-16T12:56:47.145Z,60.60
2022-08-16T12:59:20.130Z,59.90
2022-08-16T13:01:58.264Z,59.90
2022-08-16T13:04:33.110Z,60.60
2022-08-16T13:07:08.602Z,61.20
2022-08-16T13:09:48.136Z,60.90
2022-08-16T13:12:30.529Z,59.70
2022-08-16T13:15:02.600Z,57.40
2022-08-16T13:17:37.192Z,56.20
2022-08-16T13:20:17.475Z,54.00
2022-08-16T13:23:08.793Z,52.10
2022-08-16T13:25:44.412Z,48.50
2022-08-16T13:28:19.393Z,45.60
2022-08-16T13:30:55.812Z,42.90
2022-08-16T13:33:39.911Z,42.30
2022-08-16T13:39:06.902Z,40.80
2022-08-16T13:41:39.442Z,41.30
2022-08-16T13:44:09.639Z,40.70
2022-08-16T13:46:44.213Z,42.10
2022-08-16T13:49:14.346Z,42.00
2022-08-16T13:51:44.161Z,41.00
2022-08-16T13:57:05.082Z,39.90
2022-08-16T13:59:37.918Z,40.00
2022-08-16T14:02:12.580Z,39.90
2022-08-16T14:04:45.676Z,40.10
2022-08-16T14:07:19.939Z,40.00
2022-08-16T14:09:55.067Z,40.50
2022-08-16T14:12:31.200Z,40.20
2022-08-16T14:15:07.043Z,40.90
2022-08-16T14:18:15.950Z,42.00
2022-08-16T14:20:30.938Z,42.50
2022-08-16T14:23:01.993Z,42.40
2022-08-16T14:25:32.234Z,41.90
2022-08-16T14:28:29.634Z,42.30
2022-08-16T14:31:00.524Z,43.50
2022-08-16T14:33:32.943Z,43.00
2022-08-16T14:36:02.015Z,44.10
2022-08-16T14:38:39.212Z,44.10
2022-08-16T14:41:11.193Z,45.40
2022-08-16T14:43:40.268Z,44.80
2022-08-16T14:46:10.001Z,44.20
2022-08-16T14:48:39.756Z,43.50
2022-08-16T14:51:09.633Z,43.50
2022-08-16T14:53:39.435Z,43.20
2022-08-16T14:56:39.014Z,43.50
2022-08-16T14:59:08.801Z,43.30
2022-08-16T15:01:58.001Z,42.50
2022-08-16T15:04:40.322Z,41.70
2022-08-16T15:07:23.878Z,41.00
2022-08-16T15:10:00.624Z,41.20
2022-08-16T15:12:36.677Z,41.50
2022-08-16T15:15:23.344Z,41.80
2022-08-16T15:17:56.839Z,42.20
2022-08-16T15:20:29.976Z,42.20
2022-08-16T15:23:03.366Z,42.70
2022-08-16T15:26:02.945Z,42.50
2022-08-16T15:28:47.162Z,42.70
2022-08-16T15:31:16.773Z,42.90
2022-08-16T15:33:56.428Z,43.20
2022-08-16T15:36:28.033Z,43.20
2022-08-16T15:39:05.893Z,43.70
2022-08-16T15:41:58.435Z,44.30
2022-08-16T15:44:52.304Z,43.10
2022-08-16T15:47:30.353Z,44.00
2022-08-16T15:50:01.647Z,43.60
2022-08-16T15:52:37.281Z,43.80
2022-08-16T15:55:23.626Z,43.90
2022-08-16T15:57:56.092Z,44.10
2022-08-16T16:00:26.630Z,44.90
2022-08-16T16:03:08.713Z,45.20
2022-08-16T16:08:28.898Z,45.50
2022-08-16T16:11:08.961Z,45.80
2022-08-16T16:13:37.122Z,45.50
2022-08-16T16:16:16.576Z,45.40
2022-08-16T16:18:50.697Z,44.60
2022-08-16T16:21:23.483Z,45.30
2022-08-16T16:24:16.422Z,46.40
2022-08-16T16:26:54.258Z,46.50
2022-08-16T16:29:26.918Z,46.30
2022-08-16T16:31:59.804Z,46.70
2022-08-16T16:34:35.655Z,46.80
2022-08-16T16:37:10.134Z,47.30
2022-08-16T16:39:43.404Z,47.30
2022-08-16T16:42:25.604Z,47.80
2022-08-16T16:45:03.546Z,47.80
2022-08-16T16:47:41.485Z,48.20
2022-08-16T16:50:15.865Z,48.40
2022-08-16T16:52:47.879Z,48.40
2022-08-16T16:55:15.421Z,48.10
2022-08-16T16:58:06.936Z,48.30
2022-08-16T17:00:51.790Z,48.00
2022-08-16T17:06:14.095Z,48.70
2022-08-16T17:08:43.235Z,48.50
2022-08-16T17:11:17.278Z,49.00
2022-08-16T17:13:51.631Z,48.90
2022-08-16T17:16:21.507Z,49.30
2022-08-16T17:19:16.767Z,49.50
2022-08-16T17:21:48.950Z,49.70
2022-08-16T17:24:31.941Z,49.70
2022-08-16T17:27:08.874Z,50.10
2022-08-16T17:29:42.869Z,50.30
2022-08-16T17:32:34.293Z,50.70
2022-08-16T17:35:17.837Z,51.00
2022-08-16T17:37:54.153Z,51.50
2022-08-16T17:40:41.027Z,51.70
2022-08-16T17:43:22.686Z,51.90
2022-08-16T17:45:53.479Z,52.50
2022-08-16T17:48:26.251Z,52.80
2022-08-16T17:50:57.044Z,53.30
2022-08-16T17:53:29.832Z,53.30
2022-08-16T17:56:01.286Z,53.50
2022-08-16T17:58:32.770Z,53.60
2022-08-16T18:01:04.268Z,53.40
2022-08-16T18:04:07.982Z,53.60
2022-08-16T18:06:29.565Z,53.70
2022-08-16T18:09:02.525Z,53.70
2022-08-16T18:11:36.602Z,53.90
2022-08-16T18:14:11.811Z,54.20
2022-08-16T18:16:44.197Z,54.30
2022-08-16T18:19:18.079Z,54.40
2022-08-16T18:22:07.640Z,54.50
2022-08-16T18:24:39.144Z,54.70
2022-08-16T18:27:25.894Z,54.90
2022-08-16T18:29:58.722Z,55.00
2022-08-16T18:32:30.583Z,55.10
2022-08-16T18:35:00.512Z,55.40
2022-08-16T18:37:30.514Z,55.50
2022-08-16T18:40:06.672Z,55.70
2022-08-16T18:42:35.467Z,55.70
2022-08-16T18:45:04.956Z,55.80
2022-08-16T18:47:34.561Z,55.90
2022-08-16T18:50:03.447Z,56.10
2022-08-16T18:52:36.071Z,56.10
2022-08-16T18:55:14.650Z,56.30
2022-08-16T18:57:44.768Z,56.40
2022-08-16T19:00:17.826Z,56.30
2022-08-16T19:02:58.161Z,56.30
2022-08-16T19:05:32.792Z,56.50
2022-08-16T19:08:05.445Z,56.70
2022-08-16T19:10:35.982Z,56.70
2022-08-16T19:13:13.636Z,56.60
2022-08-16T19:15:46.618Z,56.70
2022-08-16T19:18:20.442Z,56.80
2022-08-16T19:20:49.716Z,57.00
2022-08-16T19:23:22.771Z,57.30
2022-08-16T19:25:58.312Z,57.50
2022-08-16T19:28:58.775Z,57.70
2022-08-16T19:31:37.310Z,58.00
2022-08-16T19:34:05.386Z,58.70
2022-08-16T19:36:39.842Z,59.00
2022-08-16T19:39:32.691Z,59.20
2022-08-16T19:42:28.799Z,59.70
2022-08-16T19:45:02.198Z,60.00
2022-08-16T19:47:33.775Z,60.10
2022-08-16T19:50:05.386Z,60.60
2022-08-16T19:52:40.592Z,60.50
2022-08-16T19:55:13.081Z,61.00
2022-08-16T19:57:55.918Z,61.70
2022-08-16T20:00:30.897Z,62.10
2022-08-16T20:03:04.320Z,62.50
2022-08-16T20:05:38.768Z,62.80
2022-08-16T20:08:07.928Z,63.10
2022-08-16T20:10:35.540Z,63.50
2022-08-16T20:13:29.244Z,63.70
2022-08-16T20:15:58.958Z,63.80
2022-08-16T20:18:30.648Z,64.00
2022-08-16T20:20:58.364Z,64.30
2022-08-16T20:23:31.209Z,64.40
2022-08-16T20:26:01.193Z,64.50
2022-08-16T20:28:52.460Z,64.70
2022-08-16T20:31:20.547Z,64.90
2022-08-16T20:33:54.606Z,65.20
2022-08-16T20:36:26.935Z,65.40
2022-08-16T20:38:57.445Z,65.70
2022-08-16T20:41:29.171Z,66.00
2022-08-16T20:44:02.424Z,66.30
2022-08-16T20:46:31.592Z,66.50
2022-08-16T20:49:02.233Z,66.60
2022-08-16T20:51:46.650Z,67.00
2022-08-16T20:54:20.398Z,67.30
2022-08-16T20:56:50.026Z,67.90
2022-08-16T20:59:20.054Z,68.60
2022-08-16T21:01:51.251Z,69.20
2022-08-16T21:04:27.276Z,69.60
2022-08-16T21:06:55.792Z,69.70
2022-08-16T21:09:34.817Z,70.00
2022-08-16T21:12:10.174Z,70.60
2022-08-16T21:14:46.210Z,70.70
2022-08-16T21:17:19.414Z,70.50
2022-08-16T21:19:49.788Z,70.40
2022-08-16T21:22:22.853Z,70.50
2022-08-16T21:24:53.869Z,70.40
2022-08-16T21:27:26.460Z,71.00
2022-08-16T21:29:56.828Z,70.90
2022-08-16T21:32:35.330Z,72.40
2022-08-16T21:35:40.831Z,73.70
2022-08-16T21:38:29.891Z,75.10
2022-08-16T21:41:03.296Z,75.20
2022-08-16T21:43:36.518Z,75.50
2022-08-16T21:46:06.335Z,75.90
2022-08-16T21:48:40.658Z,76.40
2022-08-16T21:51:19.879Z,77.30
2022-08-16T21:53:49.622Z,78.20
2022-08-16T21:56:20.906Z,78.80
2022-08-16T21:58:52.823Z,79.00
2022-08-16T22:01:27.174Z,79.60
2022-08-16T22:04:03.642Z,80.90
2022-08-16T22:06:44.828Z,81.40
2022-08-16T22:09:18.672Z,82.20
2022-08-16T22:11:51.345Z,82.60
2022-08-16T22:14:21.003Z,83.70
2022-08-16T22:16:52.406Z,84.20
2022-08-16T22:19:26.017Z,85.30
2022-08-16T22:21:59.089Z,86.10
2022-08-16T22:24:29.556Z,86.60
2022-08-16T22:26:59.223Z,87.40
2022-08-16T22:29:27.850Z,88.20
2022-08-16T22:31:56.713Z,89.00
2022-08-16T22:37:12.932Z,89.10
2022-08-16T22:39:43.903Z,90.00
2022-08-16T22:42:13.821Z,90.30
2022-08-16T22:44:46.754Z,90.60
2022-08-16T22:47:18.538Z,90.90
2022-08-16T22:49:55.013Z,91.00
2022-08-16T22:52:50.792Z,91.40
2022-08-16T22:55:21.727Z,91.50
2022-08-16T22:57:52.180Z,92.00
2022-08-16T23:00:26.547Z,92.50
2022-08-16T23:03:16.916Z,93.00
2022-08-16T23:05:50.601Z,93.30
2022-08-16T23:08:38.267Z,93.50
2022-08-16T23:11:12.540Z,94.00
2022-08-16T23:13:49.860Z,94.20
2022-08-16T23:16:35.786Z,94.20
2022-08-16T23:19:25.856Z,94.40
2022-08-16T23:21:58.014Z,94.70
2022-08-16T23:24:30.539Z,94.60
2022-08-16T23:27:06.914Z,94.30
2022-08-16T23:29:34.411Z,94.20
2022-08-16T23:32:14.631Z,94.10
2022-08-16T23:34:45.090Z,94.10
2022-08-16T23:37:15.797Z,93.90
2022-08-16T23:39:47.122Z,93.80
2022-08-16T23:42:52.615Z,93.60
2022-08-16T23:45:08.379Z,93.80
2022-08-16T23:47:40.394Z,93.80
2022-08-16T23:50:12.959Z,93.90
2022-08-16T23:53:04.438Z,93.90
2022-08-16T23:55:47.159Z,94.00
2022-08-16T23:58:20.562Z,94.00
